Time;durP1;ratioP1;P1;durP2;ratioP2;P2;SDS_P1;SDS_P2;PMS_P1;PMS_P2;Temp;Humidity;BMP_temperature;BMP_pressure;BME280_temperature;BME280_humidity;BME280_pressure;Samples;Min_cycle;Max_cycle;Signal;HPM_P1;HPM_P2
2022/03/23 00:00:31;;;;;;;9.33;8.27;;;8.10;18.10;;;;;;10307381;28;20235;-74
2022/03/23 00:05:39;;;;;;;9.13;8.23;;;8.10;18.10;;;;;;10303951;28;20235;-74
2022/03/23 00:10:42;;;;;;;10.43;9.33;;;8.10;18.40;;;;;;10298145;28;20238;-73
2022/03/23 00:15:45;;;;;;;11.93;8.73;;;8.00;18.00;;;;;;10309158;28;20231;-74
2022/03/23 00:20:50;;;;;;;11.77;8.07;;;7.80;17.90;;;;;;10300403;28;20231;-74
2022/03/23 00:25:54;;;;;;;8.93;7.63;;;7.40;18.10;;;;;;10310159;28;20241;-73
2022/03/23 00:30:58;;;;;;;7.83;6.93;;;7.20;18.10;;;;;;10303948;28;20328;-74
2022/03/23 00:36:09;;;;;;;10.53;7.73;;;7.00;18.50;;;;;;10302769;28;20384;-74
2022/03/23 00:41:12;;;;;;;8.20;7.00;;;6.80;19.00;;;;;;10300649;28;20315;-74
2022/03/23 00:46:15;;;;;;;7.60;6.37;;;6.80;18.70;;;;;;10301914;28;20239;-73
2022/03/23 00:51:20;;;;;;;7.67;6.87;;;6.70;18.80;;;;;;10300032;28;20231;-74
2022/03/23 00:56:23;;;;;;;8.30;7.10;;;6.80;19.30;;;;;;10303721;28;20286;-74
2022/03/23 01:01:29;;;;;;;11.03;7.40;;;6.80;19.10;;;;;;10302583;28;20246;-74
2022/03/23 01:06:34;;;;;;;6.97;6.33;;;6.70;18.90;;;;;;10304768;28;20898;-74
2022/03/23 01:11:38;;;;;;;7.87;7.07;;;6.50;19.10;;;;;;10307850;28;20239;-73
2022/03/23 01:16:41;;;;;;;8.10;6.90;;;6.40;19.10;;;;;;10304565;28;20322;-73
2022/03/23 01:21:46;;;;;;;8.00;6.43;;;6.30;19.10;;;;;;10308016;28;20253;-73
2022/03/23 01:26:49;;;;;;;7.80;7.03;;;6.20;19.60;;;;;;10302478;28;20371;-74
2022/03/23 01:31:52;;;;;;;7.40;6.70;;;6.20;19.60;;;;;;10303180;28;20231;-74
2022/03/23 01:36:57;;;;;;;8.00;6.50;;;6.20;19.60;;;;;;10309299;28;20702;-74
2022/03/23 01:42:00;;;;;;;7.27;6.57;;;6.30;19.80;;;;;;10302916;28;20247;-74
2022/03/23 01:47:08;;;;;;;8.23;6.47;;;6.30;19.60;;;;;;10310785;28;20241;-73
2022/03/23 01:52:15;;;;;;;9.03;6.77;;;6.30;19.80;;;;;;10315483;28;20229;-73
2022/03/23 01:57:20;;;;;;;7.30;6.53;;;6.20;19.80;;;;;;10317372;28;20867;-73
2022/03/23 02:02:23;;;;;;;7.13;6.20;;;6.00;19.60;;;;;;10317467;28;20234;-74
2022/03/23 02:07:29;;;;;;;5.93;5.40;;;5.90;19.70;;;;;;10318353;28;20825;-73
2022/03/23 02:12:32;;;;;;;6.20;5.60;;;5.90;20.00;;;;;;10321807;28;20231;-73
2022/03/23 02:17:35;;;;;;;7.43;5.97;;;5.90;19.80;;;;;;10322044;28;20235;-74
2022/03/23 02:22:40;;;;;;;6.40;5.80;;;5.90;20.50;;;;;;10317074;28;20238;-74
2022/03/23 02:27:44;;;;;;;7.80;5.97;;;6.00;20.20;;;;;;10314283;28;20231;-74
2022/03/23 02:32:47;;;;;;;6.93;5.90;;;6.10;20.00;;;;;;10315767;28;20234;-74
2022/03/23 02:37:52;;;;;;;7.23;5.47;;;6.10;20.60;;;;;;10312244;28;20238;-74
2022/03/23 02:42:55;;;;;;;6.60;6.00;;;6.10;20.10;;;;;;10326172;28;20239;-74
2022/03/23 02:47:58;;;;;;;6.73;6.03;;;6.10;20.00;;;;;;10316600;28;20235;-73
2022/03/23 03:03:50;;;;;;;8.30;5.50;;;6.20;20.40;;;;;;10305152;28;20250;-74
2022/03/23 03:08:54;;;;;;;8.10;7.30;;;6.10;20.00;;;;;;10311274;28;20231;-74
2022/03/23 03:13:57;;;;;;;7.37;6.50;;;6.10;20.10;;;;;;10305104;28;20239;-74
2022/03/23 03:19:00;;;;;;;8.50;6.30;;;6.10;19.90;;;;;;10311748;28;20235;-74
2022/03/23 03:24:06;;;;;;;9.27;7.40;;;6.00;19.90;;;;;;10310112;28;20230;-74
2022/03/23 03:29:09;;;;;;;7.70;6.80;;;5.90;20.10;;;;;;10307868;28;20590;-73
2022/03/23 03:34:13;;;;;;;6.63;5.83;;;5.90;20.00;;;;;;10307098;28;20734;-73
2022/03/23 03:39:17;;;;;;;7.27;5.57;;;5.90;20.00;;;;;;10311679;28;20230;-74
2022/03/23 03:44:20;;;;;;;7.47;6.50;;;5.80;20.30;;;;;;10306393;28;20242;-74
2022/03/23 03:49:23;;;;;;;8.23;6.30;;;5.70;20.20;;;;;;10307945;28;20230;-73
2022/03/23 03:54:28;;;;;;;6.77;6.07;;;5.60;20.20;;;;;;10308303;28;20704;-73
2022/03/23 03:59:31;;;;;;;8.97;6.77;;;5.50;20.50;;;;;;10309523;28;20705;-74
2022/03/23 04:04:34;;;;;;;8.10;6.10;;;5.40;20.30;;;;;;10307533;28;20615;-74
2022/03/23 04:09:39;;;;;;;6.93;6.23;;;5.30;20.40;;;;;;10305247;28;21305;-73
2022/03/23 04:14:42;;;;;;;6.57;5.97;;;5.30;20.70;;;;;;10304991;28;20239;-74
2022/03/23 04:19:45;;;;;;;9.87;6.27;;;5.30;20.70;;;;;;10311599;28;20235;-74
2022/03/23 04:24:50;;;;;;;7.63;6.83;;;5.20;20.60;;;;;;10305814;28;20238;-73
2022/03/23 04:29:53;;;;;;;7.43;6.53;;;5.10;20.70;;;;;;10308951;28;20866;-73
2022/03/23 04:34:56;;;;;;;7.23;6.53;;;4.90;20.30;;;;;;10303471;28;20250;-74
2022/03/23 04:40:01;;;;;;;7.53;6.60;;;4.70;20.60;;;;;;10307970;28;20240;-74
2022/03/23 04:45:05;;;;;;;9.83;6.17;;;4.60;21.10;;;;;;10309853;28;20311;-73
2022/03/23 04:50:10;;;;;;;8.07;6.13;;;4.50;20.90;;;;;;10309110;28;20237;-73
2022/03/23 04:55:16;;;;;;;7.17;6.47;;;4.40;21.20;;;;;;10307161;28;20231;-74
2022/03/23 05:00:20;;;;;;;11.90;6.80;;;4.30;21.60;;;;;;10305673;28;20231;-73
2022/03/23 05:05:24;;;;;;;8.90;6.27;;;4.30;21.30;;;;;;10306826;28;20789;-73
2022/03/23 05:10:29;;;;;;;9.43;6.27;;;4.30;21.40;;;;;;10307545;28;20229;-73
2022/03/23 05:15:32;;;;;;;7.70;5.53;;;4.30;21.60;;;;;;10311231;28;20234;-73
2022/03/23 05:20:36;;;;;;;7.67;5.47;;;4.40;21.30;;;;;;10320330;28;20230;-73
2022/03/23 05:25:40;;;;;;;7.27;6.57;;;4.40;21.40;;;;;;10306796;28;20252;-74
2022/03/23 05:30:43;;;;;;;7.33;5.27;;;4.50;21.70;;;;;;10308500;28;20254;-74
2022/03/23 05:35:47;;;;;;;9.97;5.93;;;4.50;21.40;;;;;;10303977;28;20226;-74
2022/03/23 05:40:51;;;;;;;7.23;6.50;;;4.50;21.50;;;;;;10305964;28;20239;-74
2022/03/23 05:45:54;;;;;;;7.03;6.33;;;4.50;21.60;;;;;;10313983;28;20249;-74
2022/03/23 05:50:58;;;;;;;8.60;6.40;;;4.40;21.20;;;;;;10315522;28;20271;-73
2022/03/23 05:56:04;;;;;;;7.10;6.20;;;4.20;21.30;;;;;;10313237;28;20584;-73
2022/03/23 06:01:08;;;;;;;7.57;6.43;;;4.30;21.80;;;;;;10312840;28;20230;-73
2022/03/23 06:06:11;;;;;;;8.70;7.73;;;4.20;21.80;;;;;;10313852;28;20235;-72
2022/03/23 06:11:15;;;;;;;11.10;6.63;;;4.20;21.90;;;;;;10316885;28;20227;-73
2022/03/23 06:16:19;;;;;;;10.27;6.57;;;4.30;22.70;;;;;;10312420;28;20254;-73
2022/03/23 06:21:22;;;;;;;7.57;6.77;;;4.30;22.40;;;;;;10314899;28;20239;-73
2022/03/23 06:26:27;;;;;;;7.27;6.37;;;4.50;22.40;;;;;;10313658;28;20235;-73
2022/03/23 06:31:30;;;;;;;8.87;6.93;;;4.40;22.60;;;;;;10318610;28;20259;-72
2022/03/23 06:36:35;;;;;;;8.50;6.37;;;4.50;22.40;;;;;;10319171;28;20227;-73
2022/03/23 06:41:39;;;;;;;7.50;6.70;;;4.50;22.50;;;;;;10330106;28;20234;-73
2022/03/23 06:46:42;;;;;;;9.70;6.33;;;4.70;22.80;;;;;;10318660;28;20258;-73
2022/03/23 06:51:46;;;;;;;9.47;6.57;;;4.60;22.60;;;;;;10318397;28;20635;-73
2022/03/23 06:56:51;;;;;;;10.60;7.43;;;4.70;22.90;;;;;;10324009;28;20736;-73
2022/03/23 07:01:54;;;;;;;8.70;6.60;;;4.80;23.30;;;;;;10319947;28;20227;-73
2022/03/23 07:06:58;;;;;;;8.30;6.90;;;4.90;23.10;;;;;;10324356;28;20723;-74
2022/03/23 07:12:05;;;;;;;8.23;7.40;;;5.10;23.20;;;;;;10318792;28;20238;-72
2022/03/23 07:17:08;;;;;;;8.03;7.13;;;5.20;23.90;;;;;;10320221;28;20236;-73
2022/03/23 07:22:11;;;;;;;9.33;7.50;;;5.30;23.40;;;;;;10322807;28;20234;-72
2022/03/23 07:27:16;;;;;;;8.60;7.40;;;5.50;23.50;;;;;;10316284;28;20712;-73
2022/03/23 07:32:22;;;;;;;10.00;7.73;;;5.70;23.90;;;;;;10314527;28;20631;-73
2022/03/23 07:37:26;;;;;;;7.97;7.17;;;5.90;23.90;;;;;;10319340;28;20230;-73
2022/03/23 07:42:30;;;;;;;8.07;7.20;;;6.10;23.80;;;;;;10311781;28;20226;-72
2022/03/23 07:47:33;;;;;;;7.67;6.97;;;6.30;24.30;;;;;;10314313;28;20242;-73
2022/03/23 07:52:37;;;;;;;8.30;7.30;;;6.60;24.00;;;;;;10320499;28;20229;-73
2022/03/23 07:57:41;;;;;;;10.00;8.90;;;6.90;24.20;;;;;;10317401;28;20238;-73
2022/03/23 08:02:50;;;;;;;9.90;8.40;;;7.10;24.40;;;;;;10313014;28;20234;-73
2022/03/23 08:07:54;;;;;;;9.77;8.77;;;7.40;24.20;;;;;;10315709;28;20235;-73
2022/03/23 08:12:58;;;;;;;10.90;9.07;;;7.80;24.20;;;;;;10319448;28;20230;-73
2022/03/23 08:18:02;;;;;;;10.70;8.80;;;8.10;24.20;;;;;;10314214;28;20239;-74
2022/03/23 08:23:07;;;;;;;10.00;9.03;;;8.50;24.10;;;;;;10309221;28;20326;-74
2022/03/23 08:28:14;;;;;;;11.67;8.93;;;8.80;24.10;;;;;;10315353;28;20227;-74
2022/03/23 08:33:19;;;;;;;10.20;9.13;;;9.10;24.30;;;;;;10312231;28;20798;-74
2022/03/23 08:38:22;;;;;;;10.27;9.20;;;9.50;23.90;;;;;;10313169;28;20235;-74
2022/03/23 08:43:27;;;;;;;10.97;9.87;;;9.80;23.90;;;;;;10323144;28;20240;-74
2022/03/23 08:48:30;;;;;;;10.83;9.83;;;10.10;23.20;;;;;;10319533;28;20719;-74
2022/03/23 08:53:34;;;;;;;11.27;10.17;;;10.40;23.20;;;;;;10314513;28;20319;-74
2022/03/23 08:58:40;;;;;;;10.67;9.67;;;10.70;23.20;;;;;;10320104;28;20223;-75
2022/03/23 09:03:43;;;;;;;11.70;9.87;;;11.10;23.10;;;;;;10314127;28;20235;-74
2022/03/23 09:08:46;;;;;;;11.03;9.93;;;11.40;22.90;;;;;;10318168;28;20238;-74
2022/03/23 09:13:51;;;;;;;11.03;9.87;;;11.70;22.70;;;;;;10319110;28;20235;-74
2022/03/23 09:18:55;;;;;;;11.10;10.00;;;12.00;22.70;;;;;;10319844;28;20322;-74
2022/03/23 09:23:58;;;;;;;11.53;10.33;;;12.30;22.60;;;;;;10315046;28;20243;-73
2022/03/23 09:29:03;;;;;;;11.17;9.97;;;12.50;22.40;;;;;;10322643;28;20233;-74
2022/03/23 09:34:07;;;;;;;10.23;9.23;;;12.80;22.20;;;;;;10313598;28;20338;-74
2022/03/23 09:39:10;;;;;;;11.13;9.17;;;13.00;22.20;;;;;;10312135;28;20313;-75
2022/03/23 09:44:16;;;;;;;11.63;10.50;;;13.30;22.50;;;;;;10323880;28;20230;-75
2022/03/23 09:49:19;;;;;;;10.67;9.57;;;13.60;22.10;;;;;;10325321;28;20775;-75
2022/03/23 09:54:23;;;;;;;11.07;9.97;;;13.90;22.00;;;;;;10320903;28;20231;-75
2022/03/23 09:59:28;;;;;;;11.00;9.90;;;14.20;21.70;;;;;;10313568;28;20241;-76
2022/03/23 10:05:09;;;;;;;12.97;9.93;;;14.50;21.60;;;;;;10317554;28;21031;-75
2022/03/23 10:11:12;;;;;;;10.97;9.93;;;14.80;21.80;;;;;;10313237;28;20713;-77
2022/03/23 10:16:50;;;;;;;10.20;9.20;;;15.10;21.90;;;;;;10333951;28;20235;-77
2022/03/23 10:21:54;;;;;;;11.80;10.60;;;15.30;21.00;;;;;;10323104;28;20245;-77
2022/03/23 10:26:58;;;;;;;11.10;10.00;;;15.60;21.00;;;;;;10314695;28;20242;-76
2022/03/23 10:32:06;;;;;;;10.87;9.77;;;15.80;20.90;;;;;;10313311;28;20238;-78
2022/03/23 10:37:09;;;;;;;11.37;10.17;;;16.00;20.50;;;;;;10307821;28;20231;-78
2022/03/23 10:42:20;;;;;;;11.03;9.93;;;16.30;20.60;;;;;;10311172;28;20462;-76
2022/03/23 10:47:31;;;;;;;11.43;10.30;;;16.50;20.40;;;;;;10312446;28;20234;-78
2022/03/23 10:52:34;;;;;;;10.57;9.63;;;16.70;19.90;;;;;;10320540;28;20251;-78
2022/03/23 10:58:20;;;;;;;11.37;10.37;;;16.90;20.30;;;;;;10329367;28;20235;-76
2022/03/23 11:03:37;;;;;;;11.27;10.20;;;17.00;19.50;;;;;;10324681;28;20696;-78
2022/03/23 11:08:44;;;;;;;12.33;10.37;;;17.30;19.40;;;;;;10315199;28;20237;-77
2022/03/23 11:19:19;;;;;;;11.13;10.07;;;17.60;18.90;;;;;;10313474;28;20214;-78
2022/03/23 11:24:34;;;;;;;12.87;11.40;;;17.70;19.00;;;;;;10311590;28;20242;-76
2022/03/23 11:29:39;;;;;;;12.00;10.80;;;17.80;19.50;;;;;;10317651;28;20231;-78
2022/03/23 11:34:48;;;;;;;12.30;11.10;;;17.90;19.20;;;;;;10325197;28;20232;-77
2022/03/23 11:39:52;;;;;;;11.93;10.83;;;18.10;18.60;;;;;;10315366;28;20254;-77
2022/03/23 11:44:56;;;;;;;12.53;11.43;;;18.20;19.00;;;;;;10312010;28;20241;-77
2022/03/23 11:50:12;;;;;;;12.63;11.37;;;18.30;18.70;;;;;;10316839;28;20227;-77
2022/03/23 12:00:42;;;;;;;13.23;11.63;;;18.60;18.30;;;;;;10320662;28;20242;-77
2022/03/23 12:05:53;;;;;;;12.63;11.33;;;18.70;18.50;;;;;;10312449;28;20246;-76
2022/03/23 12:10:57;;;;;;;12.33;11.33;;;18.80;17.70;;;;;;10312467;28;21031;-78
2022/03/23 12:16:06;;;;;;;12.87;11.67;;;18.90;18.40;;;;;;10317201;28;20234;-77
2022/03/23 12:21:12;;;;;;;11.47;10.47;;;19.00;18.20;;;;;;10317797;28;20230;-76
2022/03/23 12:26:26;;;;;;;11.13;10.13;;;19.10;18.00;;;;;;10324798;28;20234;-76
2022/03/23 12:31:37;;;;;;;13.27;11.17;;;19.20;17.50;;;;;;10324489;28;20843;-76
2022/03/23 12:36:58;;;;;;;11.27;10.17;;;19.30;17.40;;;;;;10319086;28;20238;-76
2022/03/23 12:42:19;;;;;;;11.53;10.53;;;19.30;17.50;;;;;;10326016;28;20754;-76
2022/03/23 12:47:28;;;;;;;10.97;9.83;;;19.40;17.20;;;;;;10323235;28;20264;-76
2022/03/23 12:58:02;;;;;;;9.63;8.83;;;19.60;16.90;;;;;;10324092;28;20239;-76
2022/03/23 13:03:47;;;;;;;9.97;8.97;;;19.60;15.70;;;;;;10324108;28;20223;-77
2022/03/23 13:08:53;;;;;;;8.77;8.00;;;19.60;16.40;;;;;;10329533;28;20249;-77
2022/03/23 13:13:58;;;;;;;8.67;7.97;;;19.60;16.50;;;;;;10334852;28;20264;-76
2022/03/23 13:19:03;;;;;;;8.57;7.87;;;19.70;16.40;;;;;;10335651;28;20307;-76
2022/03/23 13:24:09;;;;;;;8.17;7.43;;;19.70;16.20;;;;;;10333897;28;20246;-77
2022/03/23 13:29:14;;;;;;;8.63;7.83;;;19.80;15.80;;;;;;10325947;28;20261;-77
2022/03/23 13:34:19;;;;;;;7.10;6.50;;;19.90;15.70;;;;;;10322433;28;20713;-79
2022/03/23 13:39:23;;;;;;;6.77;6.17;;;19.90;15.90;;;;;;10311276;28;20322;-79
2022/03/23 13:49:47;;;;;;;5.70;5.27;;;20.00;15.20;;;;;;10313392;28;20231;-78
2022/03/23 13:54:53;;;;;;;4.60;4.20;;;20.10;15.20;;;;;;10310982;28;20235;-78
2022/03/23 13:59:57;;;;;;;5.00;4.60;;;20.10;13.70;;;;;;10312900;28;20237;-77
2022/03/23 14:05:00;;;;;;;5.73;5.23;;;20.20;14.40;;;;;;10317555;28;20226;-78
2022/03/23 14:10:11;;;;;;;6.13;5.63;;;20.20;14.90;;;;;;10316210;28;20227;-78
2022/03/23 14:15:14;;;;;;;7.73;7.13;;;20.30;13.20;;;;;;10309117;28;20223;-77
2022/03/23 14:20:18;;;;;;;8.13;7.43;;;20.40;15.00;;;;;;10323933;28;20237;-77
2022/03/23 14:25:25;;;;;;;8.43;7.73;;;20.60;15.00;;;;;;10322280;28;20242;-77
2022/03/23 14:30:32;;;;;;;9.40;8.60;;;20.60;14.20;;;;;;10329400;28;20341;-78
2022/03/23 14:35:38;;;;;;;9.40;8.33;;;20.70;13.90;;;;;;10328615;28;20234;-77
2022/03/23 14:40:50;;;;;;;9.30;8.57;;;20.70;14.70;;;;;;10325420;28;20281;-78
2022/03/23 14:45:54;;;;;;;10.17;9.23;;;20.80;13.90;;;;;;10316475;28;20235;-77
2022/03/23 14:50:59;;;;;;;9.23;8.37;;;20.80;14.20;;;;;;10317196;28;20263;-77
2022/03/23 14:56:09;;;;;;;8.73;7.83;;;20.80;14.30;;;;;;10328759;28;20715;-77
2022/03/23 15:01:13;;;;;;;8.83;8.03;;;20.90;14.20;;;;;;10335770;28;20321;-77
2022/03/23 15:17:00;;;;;;;8.40;7.70;;;21.00;13.80;;;;;;10317863;28;20243;-77
2022/03/23 15:22:04;;;;;;;9.13;8.27;;;21.00;14.10;;;;;;10323704;28;20242;-77
2022/03/23 15:27:09;;;;;;;8.47;7.67;;;21.00;13.90;;;;;;10314519;28;20238;-77
2022/03/23 15:32:13;;;;;;;9.03;8.20;;;21.10;13.90;;;;;;10314334;28;20235;-77
2022/03/23 15:37:20;;;;;;;8.20;7.43;;;21.10;13.90;;;;;;10320986;28;20735;-77
2022/03/23 15:47:47;;;;;;;9.10;8.37;;;21.20;14.00;;;;;;10297786;28;20239;-77
2022/03/23 15:52:50;;;;;;;9.00;8.20;;;21.20;14.00;;;;;;10324391;28;20246;-77
2022/03/23 15:57:56;;;;;;;9.73;8.93;;;21.20;13.80;;;;;;10321112;28;20235;-77
2022/03/23 16:02:59;;;;;;;9.27;8.47;;;21.30;13.60;;;;;;10317564;28;20227;-77
2022/03/23 16:08:02;;;;;;;9.33;8.53;;;21.30;14.10;;;;;;10322660;28;20236;-77
2022/03/23 16:13:07;;;;;;;9.17;8.37;;;21.30;14.30;;;;;;10328665;28;20333;-76
2022/03/23 16:18:11;;;;;;;9.47;8.67;;;21.30;14.30;;;;;;10334076;28;20241;-76
2022/03/23 16:23:14;;;;;;;9.00;8.30;;;21.30;14.50;;;;;;10335168;28;20231;-75
2022/03/23 16:28:18;;;;;;;8.63;7.83;;;21.30;14.30;;;;;;10323813;28;20246;-76
2022/03/23 16:33:21;;;;;;;9.43;8.23;;;21.30;14.20;;;;;;10333444;28;20394;-75
2022/03/23 16:38:25;;;;;;;9.33;8.43;;;21.30;14.30;;;;;;10331019;28;20253;-76
2022/03/23 16:43:29;;;;;;;8.67;7.87;;;21.20;14.10;;;;;;10319562;28;20231;-77
2022/03/23 16:48:33;;;;;;;8.30;7.60;;;21.10;13.70;;;;;;10314644;28;20227;-77
2022/03/23 16:53:36;;;;;;;8.43;7.27;;;21.10;13.90;;;;;;10326282;28;20226;-77
2022/03/23 16:58:41;;;;;;;8.03;7.33;;;21.00;14.10;;;;;;10323746;28;20715;-75
2022/03/23 17:14:26;;;;;;;7.97;7.27;;;20.70;14.30;;;;;;10323737;28;20612;-74
2022/03/23 17:19:33;;;;;;;7.90;7.13;;;20.60;14.20;;;;;;10318904;28;20230;-74
2022/03/23 17:24:37;;;;;;;7.20;6.60;;;20.40;14.50;;;;;;10326191;28;20240;-74
2022/03/23 17:29:43;;;;;;;7.33;6.63;;;20.30;14.70;;;;;;10323844;28;20258;-74
2022/03/23 17:34:47;;;;;;;8.70;7.90;;;20.20;14.60;;;;;;10320750;28;20230;-74
2022/03/23 17:39:51;;;;;;;7.03;6.43;;;20.00;14.60;;;;;;10323572;28;20227;-75
2022/03/23 17:44:55;;;;;;;8.17;6.50;;;19.90;15.10;;;;;;10317410;28;20226;-75
2022/03/23 17:49:58;;;;;;;7.03;6.33;;;19.70;15.00;;;;;;10325580;28;20239;-74
2022/03/23 17:55:02;;;;;;;6.13;5.63;;;19.50;14.80;;;;;;10318477;28;20235;-76
2022/03/23 18:00:09;;;;;;;6.30;5.70;;;19.30;14.70;;;;;;10318841;28;20233;-74
2022/03/23 18:05:12;;;;;;;6.33;5.73;;;19.10;14.80;;;;;;10317645;28;20246;-75
2022/03/23 18:10:16;;;;;;;6.93;5.63;;;18.90;14.70;;;;;;10317474;28;20249;-75
2022/03/23 18:15:22;;;;;;;6.53;6.03;;;18.70;15.00;;;;;;10321120;28;20232;-75
2022/03/23 18:20:25;;;;;;;6.43;5.83;;;18.50;15.10;;;;;;10326779;28;20231;-75
2022/03/23 18:25:29;;;;;;;7.33;6.70;;;18.30;15.00;;;;;;10322712;28;20250;-75
2022/03/23 18:30:35;;;;;;;8.47;7.73;;;18.20;15.10;;;;;;10341985;28;20238;-76
2022/03/23 18:35:38;;;;;;;10.77;9.77;;;18.00;15.20;;;;;;10340195;28;20330;-75
2022/03/23 18:40:41;;;;;;;10.83;9.73;;;17.80;15.10;;;;;;10348966;28;20234;-76
2022/03/23 18:45:46;;;;;;;15.50;13.73;;;17.60;15.30;;;;;;10341677;28;20261;-75
2022/03/23 18:50:49;;;;;;;15.03;12.47;;;17.50;15.50;;;;;;10346442;28;20247;-76
2022/03/23 18:55:53;;;;;;;19.47;17.53;;;17.30;15.30;;;;;;10350904;28;20235;-76
2022/03/23 19:00:58;;;;;;;15.17;13.73;;;17.20;15.30;;;;;;10344468;28;20231;-76
2022/03/23 19:06:01;;;;;;;12.53;11.37;;;16.90;15.20;;;;;;10341305;28;20235;-74
2022/03/23 19:11:07;;;;;;;21.50;18.17;;;16.70;15.20;;;;;;10348228;28;20317;-75
2022/03/23 19:16:12;;;;;;;13.43;12.03;;;16.40;15.20;;;;;;10340908;28;20725;-75
2022/03/23 19:21:16;;;;;;;17.23;15.40;;;16.10;15.20;;;;;;10338648;28;20625;-75
2022/03/23 19:26:20;;;;;;;18.30;16.50;;;15.70;15.20;;;;;;10333578;28;20239;-75
2022/03/23 19:31:25;;;;;;;15.83;14.23;;;15.40;15.40;;;;;;10332429;28;20282;-75
2022/03/23 19:36:28;;;;;;;14.07;11.60;;;15.00;15.80;;;;;;10337624;28;20234;-76
2022/03/23 19:41:32;;;;;;;13.17;11.87;;;14.80;15.80;;;;;;10348959;28;20710;-76
2022/03/23 19:46:37;;;;;;;15.50;13.80;;;14.70;16.00;;;;;;10328167;28;20239;-76
2022/03/23 19:51:40;;;;;;;14.10;12.70;;;14.60;16.30;;;;;;10342077;28;20286;-76
2022/03/23 19:56:43;;;;;;;15.20;13.40;;;14.40;16.10;;;;;;10340891;28;20237;-76
2022/03/23 20:01:48;;;;;;;12.80;11.60;;;14.30;16.40;;;;;;10337532;28;20734;-76
2022/03/23 20:06:51;;;;;;;16.60;14.80;;;14.20;16.50;;;;;;10327786;28;20680;-75
2022/03/23 20:11:55;;;;;;;23.57;19.13;;;14.10;16.40;;;;;;10328749;28;20611;-76
2022/03/23 20:17:00;;;;;;;21.53;19.27;;;13.90;16.30;;;;;;10344729;28;20334;-76
2022/03/23 20:22:04;;;;;;;20.37;17.13;;;13.60;16.50;;;;;;10329479;28;20240;-75
2022/03/23 20:27:07;;;;;;;17.03;14.73;;;13.30;16.50;;;;;;10326678;28;20449;-76
2022/03/23 20:32:11;;;;;;;15.97;11.83;;;13.00;16.70;;;;;;10321594;28;20268;-77
2022/03/23 20:37:15;;;;;;;14.77;10.37;;;12.80;17.10;;;;;;10327671;28;20234;-75
2022/03/23 20:42:18;;;;;;;13.03;11.73;;;12.50;16.90;;;;;;10320704;28;20263;-76
2022/03/23 20:47:23;;;;;;;13.17;11.63;;;12.30;17.10;;;;;;10325520;28;20241;-77
2022/03/23 20:52:26;;;;;;;14.83;12.07;;;12.10;17.30;;;;;;10325989;28;20799;-76
2022/03/23 20:57:29;;;;;;;15.90;11.80;;;11.90;17.30;;;;;;10326668;28;20238;-76
2022/03/23 21:02:35;;;;;;;12.60;11.23;;;11.70;17.30;;;;;;10333567;28;20913;-76
2022/03/23 21:07:40;;;;;;;15.77;13.63;;;11.60;17.60;;;;;;10335183;28;20230;-77
2022/03/23 21:12:43;;;;;;;16.27;12.33;;;11.50;17.50;;;;;;10336692;28;20703;-75
2022/03/23 21:17:48;;;;;;;14.27;12.33;;;11.40;17.50;;;;;;10341070;28;20605;-76
2022/03/23 21:22:51;;;;;;;15.57;13.00;;;11.30;17.80;;;;;;10337734;28;20241;-76
2022/03/23 21:27:55;;;;;;;16.17;11.97;;;11.20;17.80;;;;;;10337267;28;20234;-77
2022/03/23 21:33:00;;;;;;;14.03;10.53;;;11.10;17.80;;;;;;10332577;28;20234;-76
2022/03/23 21:38:03;;;;;;;11.33;10.17;;;11.00;18.10;;;;;;10321254;28;20231;-76
2022/03/23 21:43:07;;;;;;;20.93;15.83;;;10.90;18.00;;;;;;10329720;28;20741;-76
2022/03/23 21:48:12;;;;;;;16.73;14.43;;;10.90;18.30;;;;;;10325316;28;20238;-76
2022/03/23 21:53:16;;;;;;;15.00;11.90;;;10.90;18.70;;;;;;10327410;28;20226;-76
2022/03/23 21:58:20;;;;;;;12.03;10.13;;;10.90;18.40;;;;;;10330732;28;20236;-76
2022/03/23 22:03:28;;;;;;;13.67;10.80;;;10.90;18.30;;;;;;10326479;28;20240;-75
2022/03/23 22:08:32;;;;;;;11.73;10.27;;;10.90;18.60;;;;;;10324650;28;20325;-75
2022/03/23 22:13:35;;;;;;;12.33;11.03;;;10.90;18.50;;;;;;10332256;28;20254;-75
2022/03/23 22:18:40;;;;;;;11.67;10.47;;;10.80;18.40;;;;;;10335471;28;20233;-75
2022/03/23 22:23:44;;;;;;;14.50;13.00;;;10.70;18.90;;;;;;10330118;28;20238;-76
2022/03/23 22:28:47;;;;;;;13.40;11.63;;;10.60;18.50;;;;;;10320871;28;20246;-75
2022/03/23 22:33:51;;;;;;;14.07;10.90;;;10.40;18.80;;;;;;10320859;28;20689;-75
2022/03/23 22:38:55;;;;;;;16.07;11.17;;;10.30;18.70;;;;;;10338746;28;20260;-75
2022/03/23 22:43:58;;;;;;;13.00;11.37;;;10.10;18.60;;;;;;10337275;28;20235;-74
2022/03/23 22:49:03;;;;;;;14.70;12.07;;;9.90;19.20;;;;;;10328526;28;20238;-76
2022/03/23 22:54:06;;;;;;;12.97;10.57;;;9.60;19.30;;;;;;10329466;28;20232;-76
2022/03/23 22:59:10;;;;;;;12.47;9.37;;;9.40;19.50;;;;;;10337126;28;20237;-76
2022/03/23 23:04:14;;;;;;;9.77;8.80;;;9.30;19.70;;;;;;10331074;28;20261;-76
2022/03/23 23:09:18;;;;;;;9.60;8.70;;;9.30;20.20;;;;;;10330170;28;20238;-75
2022/03/23 23:14:21;;;;;;;10.97;9.60;;;9.30;19.90;;;;;;10334910;28;20259;-74
2022/03/23 23:19:25;;;;;;;10.83;9.13;;;9.30;19.90;;;;;;10319369;28;20230;-76
2022/03/23 23:24:28;;;;;;;9.60;8.70;;;9.20;20.00;;;;;;10322748;28;20314;-76
2022/03/23 23:29:41;;;;;;;8.33;7.53;;;9.20;19.90;;;;;;10335914;28;20237;-76
2022/03/23 23:34:46;;;;;;;8.47;7.63;;;9.10;20.20;;;;;;10332551;28;20234;-75
2022/03/23 23:39:52;;;;;;;10.83;9.60;;;9.10;20.30;;;;;;10330003;28;20716;-73
2022/03/23 23:44:55;;;;;;;9.73;8.77;;;9.20;20.10;;;;;;10330081;28;20235;-75
2022/03/23 23:50:00;;;;;;;10.73;9.37;;;9.10;20.20;;;;;;10334897;28;20723;-76
2022/03/23 23:55:05;;;;;;;9.87;8.87;;;9.10;20.40;;;;;;10310663;28;20246;-76
